Port Lincoln Aerodrome, Australia
Current Conditions -  °F | °C
As of 8:00 PM on Thursday 27 Nov 2014 (Local Time) from YWHA Reporting Station
Clear Clear  
Wind Chill: 72°   Ceiling: Unl
Heat Index: 72°   Visibility: 6mi
Dew Point: 61°   Wind: 17mph
Humidity: 69%   Direction: 200°SSW
Pressure: 30.06"   Gusts: NA
Location:  34.6°S, 135.87°E
Report Text: YWHA 271000Z AUTO 20015KT 9999 // NCD 22/16 Q1018
Loading
Personal Weather Stations






























Interactive Weather Map New forecast layout! Learn more

10-Day Weather Forecast

Advertisements
Track Severe Weather on mobile